Wind Star — C6CA9 — position and weather

sailwx.info

Track history (hours):
 
Tides and Currents Weather Stations Pressure Air Temp Water Temp Dewpoint Dewpoint Depression Visibility Wind Speed Wind Dir Waves Ship Positions

Wind Star

Operator: Holland America Line

Last reported at 2016-Jul-30 22:33 UTC. Time now 2016-Jul-31 00:24 UTC.
Position N 37°31' E 024°37'.

Length 134 m; draft 4.2 m.

Type: Passenger vessel. MMSI: 309163000.

Date/timePositionNaut miles runAvg speedWind from/ knotsBaromVisibWave heightAir tempDewpointWater temp
2016-Jul-30 22:33N 37°31' E 024°37'16 7.0
2016-Jul-30 20:13N 37°31' E 024°16'5 7.0
2016-Jul-30 19:33N 37°33' E 024°11'13 6.4
2016-Jul-30 17:33N 37°38' E 023°56'9 9.1
2016-Jul-30 16:33N 37°39' E 023°45'9 8.6
2016-Jul-30 15:33N 37°46' E 023°39'9 8.8
2016-Jul-30 14:33N 37°55' E 023°37'2 1.8
2016-Jul-30 13:31N 37°56' E 023°38'0 0.0
2016-Jul-30 12:31N 37°56' E 023°38'0 0.0
2016-Jul-30 11:31N 37°56' E 023°38'0 0.0
2016-Jul-30 10:31N 37°56' E 023°38'0 0.0
2016-Jul-30 09:31N 37°56' E 023°38'0 0.0
2016-Jul-30 08:31N 37°56' E 023°38'0 0.0
2016-Jul-30 07:31N 37°56' E 023°38'0 0.0
2016-Jul-30 06:31N 37°56' E 023°38'0 0.0
2016-Jul-30 05:31N 37°56' E 023°38'0 0.0
2016-Jul-30 04:31N 37°56' E 023°38'1 1.4
2016-Jul-30 03:34N 37°55' E 023°37'3 2.7
2016-Jul-30 02:33N 37°53' E 023°38'7 6.9
2016-Jul-30 01:33N 37°46' E 023°41'7 7.0
2016-Jul-30 00:33N 37°40' E 023°45'7 7.0
2016-Jul-29 23:33N 37°33' E 023°45'7 6.9
2016-Jul-29 22:33N 37°26' E 023°44'6 6.4
2016-Jul-29 21:34N 37°21' E 023°41'7 6.8
2016-Jul-29 20:33N 37°15' E 023°36'7 6.7
2016-Jul-29 19:33N 37°11' E 023°29'7 7.2
2016-Jul-29 18:32N 37°10' E 023°20'18 9.2
2016-Jul-29 16:33N 37°18' E 022°59'19 7.6
2016-Jul-29 14:07N 37°34' E 022°47'0 0.8
2016-Jul-29 13:31N 37°34' E 022°48'0 0.0
2016-Jul-29 12:31N 37°34' E 022°48'0 0.0
2016-Jul-29 11:22N 37°34' E 022°48'0 0.0
2016-Jul-29 10:28N 37°34' E 022°48'0 0.0
2016-Jul-29 09:28N 37°34' E 022°48'0 0.0
2016-Jul-29 08:31N 37°34' E 022°48'0 0.0
2016-Jul-29 07:31N 37°34' E 022°48'0 0.0
2016-Jul-29 06:31N 37°34' E 022°48'0 0.0
2016-Jul-29 05:31N 37°34' E 022°48'0 0.0
2016-Jul-29 04:33N 37°34' E 022°48'4 3.6
2016-Jul-29 03:29N 37°30' E 022°49'7 5.9
2016-Jul-29 02:21N 37°25' E 022°54'5 5.6
2016-Jul-29 01:28N 37°20' E 022°57'5 5.7
2016-Jul-29 00:33N 37°16' E 023°01'7 6.1
2016-Jul-28 23:24N 37°10' E 023°05'5 5.6
2016-Jul-28 22:33N 37°09' E 023°11'5 5.4
2016-Jul-28 21:33N 37°07' E 023°17'6 5.7
2016-Jul-28 20:34N 37°06' E 023°24'9 7.6
2016-Jul-28 19:19N 37°05' E 023°36'  
2016-Jul-23 19:12N 37°33' E 024°03'4 6.9
2016-Jul-23 18:34N 37°37' E 024°02'5 4.8
2016-Jul-23 17:33N 37°38' E 023°56'9 9.2
2016-Jul-23 16:33N 37°38' E 023°45'9 9.1
2016-Jul-23 15:34N 37°46' E 023°38'9 9.0
2016-Jul-23 14:34N 37°55' E 023°37'2 1.5
2016-Jul-23 13:31N 37°56' E 023°38'0 0.0
2016-Jul-23 12:31N 37°56' E 023°38'0 0.0
2016-Jul-23 11:31N 37°56' E 023°38'0 0.0
2016-Jul-23 10:31N 37°56' E 023°38'0 0.0
2016-Jul-23 09:31N 37°56' E 023°38'0 0.0
2016-Jul-23 08:31N 37°56' E 023°38'0 0.0
2016-Jul-23 07:28N 37°56' E 023°38'0 0.0
2016-Jul-23 06:31N 37°56' E 023°38'0 0.0
2016-Jul-23 04:28N 37°56' E 023°38'1 1.2
2016-Jul-23 03:34N 37°56' E 023°37'3 3.5
2016-Jul-23 02:33N 37°53' E 023°38'6 6.4
2016-Jul-23 01:33N 37°47' E 023°41'7 6.6
2016-Jul-23 00:33N 37°41' E 023°45'6 6.5
2016-Jul-22 23:34N 37°34' E 023°45'6 6.4
2016-Jul-22 22:34N 37°28' E 023°45'6 6.5
2016-Jul-22 21:34N 37°22' E 023°42'7 6.5
2016-Jul-22 20:33N 37°16' E 023°38'7 7.2
2016-Jul-22 19:33N 37°11' E 023°32'10 9.8
2016-Jul-22 18:33N 37°10' E 023°19'17 8.2
2016-Jul-22 16:32N 37°17' E 023°00'10 9.3
2016-Jul-22 15:31N 37°25' E 022°53'11 8.3
2016-Jul-22 14:14N 37°34' E 022°47'1 0.9
2016-Jul-22 13:24N 37°34' E 022°48'0 0.0
2016-Jul-22 12:33N 37°34' E 022°48'0 0.0
2016-Jul-22 11:30N 37°34' E 022°48'0 0.0
2016-Jul-22 10:33N 37°34' E 022°48'0 0.0
2016-Jul-22 09:27N 37°34' E 022°48'0 0.0
2016-Jul-22 08:33N 37°34' E 022°48'0 0.0
2016-Jul-22 07:33N 37°34' E 022°48'0 0.0
2016-Jul-22 04:33N 37°34' E 022°48'4 3.7
2016-Jul-22 03:31N 37°30' E 022°49'12 6.0
2016-Jul-22 01:32N 37°20' E 022°57'6 6.1
2016-Jul-22 00:31N 37°15' E 023°01'6 5.4
2016-Jul-21 23:28N 37°10' E 023°05'5 5.2
2016-Jul-21 22:33N 37°10' E 023°11'5 5.1
2016-Jul-21 21:32N 37°09' E 023°17'4 4.2
2016-Jul-21 20:32N 37°07' E 023°22'5 4.5
2016-Jul-21 19:32N 37°06' E 023°28'7 6.9
2016-Jul-21 18:31N 37°04' E 023°36'  
Track history (hours):
 
Tides and Currents Weather Stations Pressure Air Temp Water Temp Dewpoint Dewpoint Depression Visibility Wind Speed Wind Dir Waves Ship Positions

Wind Star

Operator: Holland America Line

Last reported at 2016-Jul-30 22:33 UTC. Time now 2016-Jul-31 00:24 UTC.
Position N 37°31' E 024°37'.

Length 134 m; draft 4.2 m.

Type: Passenger vessel. MMSI: 309163000.

Date/timePositionNaut miles runAvg speedWind from/ knotsBaromVisibWave heightAir tempDewpointWater temp
2016-Jul-30 22:33N 37°31' E 024°37'16 7.0
2016-Jul-30 20:13N 37°31' E 024°16'5 7.0
2016-Jul-30 19:33N 37°33' E 024°11'13 6.4
2016-Jul-30 17:33N 37°38' E 023°56'9 9.1
2016-Jul-30 16:33N 37°39' E 023°45'9 8.6
2016-Jul-30 15:33N 37°46' E 023°39'9 8.8
2016-Jul-30 14:33N 37°55' E 023°37'2 1.8
2016-Jul-30 13:31N 37°56' E 023°38'0 0.0
2016-Jul-30 12:31N 37°56' E 023°38'0 0.0
2016-Jul-30 11:31N 37°56' E 023°38'0 0.0
2016-Jul-30 10:31N 37°56' E 023°38'0 0.0
2016-Jul-30 09:31N 37°56' E 023°38'0 0.0
2016-Jul-30 08:31N 37°56' E 023°38'0 0.0
2016-Jul-30 07:31N 37°56' E 023°38'0 0.0
2016-Jul-30 06:31N 37°56' E 023°38'0 0.0
2016-Jul-30 05:31N 37°56' E 023°38'0 0.0
2016-Jul-30 04:31N 37°56' E 023°38'1 1.4
2016-Jul-30 03:34N 37°55' E 023°37'3 2.7
2016-Jul-30 02:33N 37°53' E 023°38'7 6.9
2016-Jul-30 01:33N 37°46' E 023°41'7 7.0
2016-Jul-30 00:33N 37°40' E 023°45'7 7.0
2016-Jul-29 23:33N 37°33' E 023°45'7 6.9
2016-Jul-29 22:33N 37°26' E 023°44'6 6.4
2016-Jul-29 21:34N 37°21' E 023°41'7 6.8
2016-Jul-29 20:33N 37°15' E 023°36'7 6.7
2016-Jul-29 19:33N 37°11' E 023°29'7 7.2
2016-Jul-29 18:32N 37°10' E 023°20'18 9.2
2016-Jul-29 16:33N 37°18' E 022°59'19 7.6
2016-Jul-29 14:07N 37°34' E 022°47'0 0.8
2016-Jul-29 13:31N 37°34' E 022°48'0 0.0
2016-Jul-29 12:31N 37°34' E 022°48'0 0.0
2016-Jul-29 11:22N 37°34' E 022°48'0 0.0
2016-Jul-29 10:28N 37°34' E 022°48'0 0.0
2016-Jul-29 09:28N 37°34' E 022°48'0 0.0
2016-Jul-29 08:31N 37°34' E 022°48'0 0.0
2016-Jul-29 07:31N 37°34' E 022°48'0 0.0
2016-Jul-29 06:31N 37°34' E 022°48'0 0.0
2016-Jul-29 05:31N 37°34' E 022°48'0 0.0
2016-Jul-29 04:33N 37°34' E 022°48'4 3.6
2016-Jul-29 03:29N 37°30' E 022°49'7 5.9
2016-Jul-29 02:21N 37°25' E 022°54'5 5.6
2016-Jul-29 01:28N 37°20' E 022°57'5 5.7
2016-Jul-29 00:33N 37°16' E 023°01'7 6.1
2016-Jul-28 23:24N 37°10' E 023°05'5 5.6
2016-Jul-28 22:33N 37°09' E 023°11'5 5.4
2016-Jul-28 21:33N 37°07' E 023°17'6 5.7
2016-Jul-28 20:34N 37°06' E 023°24'9 7.6
2016-Jul-28 19:19N 37°05' E 023°36'  
2016-Jul-23 19:12N 37°33' E 024°03'4 6.9
2016-Jul-23 18:34N 37°37' E 024°02'5 4.8
2016-Jul-23 17:33N 37°38' E 023°56'9 9.2
2016-Jul-23 16:33N 37°38' E 023°45'9 9.1
2016-Jul-23 15:34N 37°46' E 023°38'9 9.0
2016-Jul-23 14:34N 37°55' E 023°37'2 1.5
2016-Jul-23 13:31N 37°56' E 023°38'0 0.0
2016-Jul-23 12:31N 37°56' E 023°38'0 0.0
2016-Jul-23 11:31N 37°56' E 023°38'0 0.0
2016-Jul-23 10:31N 37°56' E 023°38'0 0.0
2016-Jul-23 09:31N 37°56' E 023°38'0 0.0
2016-Jul-23 08:31N 37°56' E 023°38'0 0.0
2016-Jul-23 07:28N 37°56' E 023°38'0 0.0
2016-Jul-23 06:31N 37°56' E 023°38'0 0.0
2016-Jul-23 04:28N 37°56' E 023°38'1 1.2
2016-Jul-23 03:34N 37°56' E 023°37'3 3.5
2016-Jul-23 02:33N 37°53' E 023°38'6 6.4
2016-Jul-23 01:33N 37°47' E 023°41'7 6.6
2016-Jul-23 00:33N 37°41' E 023°45'6 6.5
2016-Jul-22 23:34N 37°34' E 023°45'6 6.4
2016-Jul-22 22:34N 37°28' E 023°45'6 6.5
2016-Jul-22 21:34N 37°22' E 023°42'7 6.5
2016-Jul-22 20:33N 37°16' E 023°38'7 7.2
2016-Jul-22 19:33N 37°11' E 023°32'10 9.8
2016-Jul-22 18:33N 37°10' E 023°19'17 8.2
2016-Jul-22 16:32N 37°17' E 023°00'10 9.3
2016-Jul-22 15:31N 37°25' E 022°53'11 8.3
2016-Jul-22 14:14N 37°34' E 022°47'1 0.9
2016-Jul-22 13:24N 37°34' E 022°48'0 0.0
2016-Jul-22 12:33N 37°34' E 022°48'0 0.0
2016-Jul-22 11:30N 37°34' E 022°48'0 0.0
2016-Jul-22 10:33N 37°34' E 022°48'0 0.0
2016-Jul-22 09:27N 37°34' E 022°48'0 0.0
2016-Jul-22 08:33N 37°34' E 022°48'0 0.0
2016-Jul-22 07:33N 37°34' E 022°48'0 0.0
2016-Jul-22 04:33N 37°34' E 022°48'4 3.7
2016-Jul-22 03:31N 37°30' E 022°49'12 6.0
2016-Jul-22 01:32N 37°20' E 022°57'6 6.1
2016-Jul-22 00:31N 37°15' E 023°01'6 5.4
2016-Jul-21 23:28N 37°10' E 023°05'5 5.2
2016-Jul-21 22:33N 37°10' E 023°11'5 5.1
2016-Jul-21 21:32N 37°09' E 023°17'4 4.2
2016-Jul-21 20:32N 37°07' E 023°22'5 4.5
2016-Jul-21 19:32N 37°06' E 023°28'7 6.9
2016-Jul-21 18:31N 37°04' E 023°36'  

Dump ship's entire track history